sensor_id;sensor_type;location;lat;lon;timestamp;temperature;humidity
22167;DHT22;11249;52.468;13.776;2022-12-10T00:01:40;-0.70;99.90
22167;DHT22;11249;52.468;13.776;2022-12-10T00:04:08;-0.70;99.90
22167;DHT22;11249;52.468;13.776;2022-12-10T00:06:36;-0.70;99.90
22167;DHT22;11249;52.468;13.776;2022-12-10T00:09:06;-0.70;99.90
22167;DHT22;11249;52.468;13.776;2022-12-10T00:11:33;-0.70;99.90
22167;DHT22;11249;52.468;13.776;2022-12-10T00:14:00;-0.70;99.90
22167;DHT22;11249;52.468;13.776;2022-12-10T00:16:28;-0.70;99.90
22167;DHT22;11249;52.468;13.776;2022-12-10T00:18:55;-0.70;99.90
22167;DHT22;11249;52.468;13.776;2022-12-10T00:21:25;-0.70;99.90
22167;DHT22;11249;52.468;13.776;2022-12-10T00:23:52;-0.70;99.90
22167;DHT22;11249;52.468;13.776;2022-12-10T00:26:22;-0.70;99.90
22167;DHT22;11249;52.468;13.776;2022-12-10T00:28:50;-0.70;99.90
22167;DHT22;11249;52.468;13.776;2022-12-10T00:31:25;-0.70;99.90
22167;DHT22;11249;52.468;13.776;2022-12-10T00:33:54;-0.70;99.90
22167;DHT22;11249;52.468;13.776;2022-12-10T00:36:26;-0.70;99.90
22167;DHT22;11249;52.468;13.776;2022-12-10T00:38:53;-0.80;99.90
22167;DHT22;11249;52.468;13.776;2022-12-10T00:41:20;-0.70;99.90
22167;DHT22;11249;52.468;13.776;2022-12-10T00:43:49;-0.80;99.90
22167;DHT22;11249;52.468;13.776;2022-12-10T00:46:17;-0.70;99.90
22167;DHT22;11249;52.468;13.776;2022-12-10T00:48:45;-0.70;99.90
22167;DHT22;11249;52.468;13.776;2022-12-10T00:51:23;-0.70;99.90
22167;DHT22;11249;52.468;13.776;2022-12-10T00:53:54;-0.80;99.90
22167;DHT22;11249;52.468;13.776;2022-12-10T00:56:24;-0.80;99.90
22167;DHT22;11249;52.468;13.776;2022-12-10T00:58:52;-0.80;99.90
22167;DHT22;11249;52.468;13.776;2022-12-10T01:01:24;-0.80;99.90
22167;DHT22;11249;52.468;13.776;2022-12-10T01:04:03;-0.80;99.90
22167;DHT22;11249;52.468;13.776;2022-12-10T01:06:51;-0.80;99.90
22167;DHT22;11249;52.468;13.776;2022-12-10T01:09:20;-0.80;99.90
22167;DHT22;11249;52.468;13.776;2022-12-10T01:11:48;-0.80;99.90
22167;DHT22;11249;52.468;13.776;2022-12-10T01:14:18;-0.80;99.90
22167;DHT22;11249;52.468;13.776;2022-12-10T01:16:45;-0.80;99.90
22167;DHT22;11249;52.468;13.776;2022-12-10T01:19:13;-0.80;99.90
22167;DHT22;11249;52.468;13.776;2022-12-10T01:21:42;-0.80;99.90
22167;DHT22;11249;52.468;13.776;2022-12-10T01:24:09;-0.80;99.90
22167;DHT22;11249;52.468;13.776;2022-12-10T01:26:36;-0.80;99.90
22167;DHT22;11249;52.468;13.776;2022-12-10T01:29:04;-0.80;99.90
22167;DHT22;11249;52.468;13.776;2022-12-10T01:31:35;-0.80;99.90
22167;DHT22;11249;52.468;13.776;2022-12-10T01:34:03;-0.80;99.90
22167;DHT22;11249;52.468;13.776;2022-12-10T01:36:33;-0.80;99.90
22167;DHT22;11249;52.468;13.776;2022-12-10T01:39:02;-0.80;99.90
22167;DHT22;11249;52.468;13.776;2022-12-10T01:41:38;-0.80;99.90
22167;DHT22;11249;52.468;13.776;2022-12-10T01:46:40;-0.80;99.90
22167;DHT22;11249;52.468;13.776;2022-12-10T01:49:10;-0.80;99.90
22167;DHT22;11249;52.468;13.776;2022-12-10T01:51:41;-0.80;99.90
22167;DHT22;11249;52.468;13.776;2022-12-10T01:54:13;-0.80;99.90
22167;DHT22;11249;52.468;13.776;2022-12-10T01:56:42;-0.80;99.90
22167;DHT22;11249;52.468;13.776;2022-12-10T01:59:10;-0.80;99.90
22167;DHT22;11249;52.468;13.776;2022-12-10T02:02:11;-0.80;99.90
22167;DHT22;11249;52.468;13.776;2022-12-10T02:05:11;-0.80;99.90
22167;DHT22;11249;52.468;13.776;2022-12-10T02:10:28;-0.80;99.90
22167;DHT22;11249;52.468;13.776;2022-12-10T02:13:06;-0.90;99.90
22167;DHT22;11249;52.468;13.776;2022-12-10T02:15:44;-0.90;99.90
22167;DHT22;11249;52.468;13.776;2022-12-10T02:18:24;-0.90;99.90
22167;DHT22;11249;52.468;13.776;2022-12-10T02:20:56;-0.90;99.90
22167;DHT22;11249;52.468;13.776;2022-12-10T02:23:39;-0.90;99.90
22167;DHT22;11249;52.468;13.776;2022-12-10T02:26:33;-0.90;99.90
22167;DHT22;11249;52.468;13.776;2022-12-10T02:29:15;-0.90;99.90
22167;DHT22;11249;52.468;13.776;2022-12-10T02:31:55;-0.80;99.90
22167;DHT22;11249;52.468;13.776;2022-12-10T02:34:24;-0.90;99.90
22167;DHT22;11249;52.468;13.776;2022-12-10T02:36:54;-0.90;99.90
22167;DHT22;11249;52.468;13.776;2022-12-10T02:39:27;-0.90;99.90
22167;DHT22;11249;52.468;13.776;2022-12-10T02:41:58;-0.90;99.90
22167;DHT22;11249;52.468;13.776;2022-12-10T02:44:27;-0.90;99.90
22167;DHT22;11249;52.468;13.776;2022-12-10T02:46:56;-0.90;99.90
22167;DHT22;11249;52.468;13.776;2022-12-10T02:49:26;-0.80;99.90
22167;DHT22;11249;52.468;13.776;2022-12-10T02:51:53;-0.80;99.90
22167;DHT22;11249;52.468;13.776;2022-12-10T02:54:41;-0.80;99.90
22167;DHT22;11249;52.468;13.776;2022-12-10T03:00:19;-0.80;99.90
22167;DHT22;11249;52.468;13.776;2022-12-10T03:02:59;-0.80;99.90
22167;DHT22;11249;52.468;13.776;2022-12-10T03:05:59;-0.80;99.90
22167;DHT22;11249;52.468;13.776;2022-12-10T03:08:48;-0.80;99.90
22167;DHT22;11249;52.468;13.776;2022-12-10T03:11:20;-0.90;99.90
22167;DHT22;11249;52.468;13.776;2022-12-10T03:13:54;-0.90;99.90
22167;DHT22;11249;52.468;13.776;2022-12-10T03:16:24;-0.90;99.90
22167;DHT22;11249;52.468;13.776;2022-12-10T03:18:58;-0.90;99.90
22167;DHT22;11249;52.468;13.776;2022-12-10T03:21:27;-0.90;99.90
22167;DHT22;11249;52.468;13.776;2022-12-10T03:23:55;-0.90;99.90
22167;DHT22;11249;52.468;13.776;2022-12-10T03:26:22;-0.90;99.90
22167;DHT22;11249;52.468;13.776;2022-12-10T03:28:57;-0.90;99.90
22167;DHT22;11249;52.468;13.776;2022-12-10T03:31:27;-0.90;99.90
22167;DHT22;11249;52.468;13.776;2022-12-10T03:33:55;-0.90;99.90
22167;DHT22;11249;52.468;13.776;2022-12-10T03:36:22;-0.90;99.90
22167;DHT22;11249;52.468;13.776;2022-12-10T03:38:49;-0.90;99.90
22167;DHT22;11249;52.468;13.776;2022-12-10T03:41:16;-0.90;99.90
22167;DHT22;11249;52.468;13.776;2022-12-10T03:43:56;-0.90;99.90
22167;DHT22;11249;52.468;13.776;2022-12-10T03:46:25;-0.90;99.90
22167;DHT22;11249;52.468;13.776;2022-12-10T03:48:53;-0.90;99.90
22167;DHT22;11249;52.468;13.776;2022-12-10T03:51:20;-0.90;99.90
22167;DHT22;11249;52.468;13.776;2022-12-10T03:53:47;-0.90;99.90
22167;DHT22;11249;52.468;13.776;2022-12-10T03:56:17;-1.00;99.90
22167;DHT22;11249;52.468;13.776;2022-12-10T03:58:45;-1.00;99.90
22167;DHT22;11249;52.468;13.776;2022-12-10T04:01:11;-1.00;99.90
22167;DHT22;11249;52.468;13.776;2022-12-10T04:03:40;-1.10;99.90
22167;DHT22;11249;52.468;13.776;2022-12-10T04:06:13;-1.20;99.90
22167;DHT22;11249;52.468;13.776;2022-12-10T04:08:40;-1.20;99.90
22167;DHT22;11249;52.468;13.776;2022-12-10T04:11:09;-1.30;99.90
22167;DHT22;11249;52.468;13.776;2022-12-10T04:13:37;-1.40;99.90
22167;DHT22;11249;52.468;13.776;2022-12-10T04:16:24;-1.40;99.90
22167;DHT22;11249;52.468;13.776;2022-12-10T04:19:20;-1.50;99.90
22167;DHT22;11249;52.468;13.776;2022-12-10T04:21:48;-1.50;99.90
22167;DHT22;11249;52.468;13.776;2022-12-10T04:24:35;-1.60;99.90
22167;DHT22;11249;52.468;13.776;2022-12-10T04:27:22;-1.60;99.90
22167;DHT22;11249;52.468;13.776;2022-12-10T04:29:49;-1.60;99.90
22167;DHT22;11249;52.468;13.776;2022-12-10T04:32:16;-1.60;99.90
22167;DHT22;11249;52.468;13.776;2022-12-10T04:34:44;-1.60;99.90
22167;DHT22;11249;52.468;13.776;2022-12-10T04:37:11;-1.60;99.90
22167;DHT22;11249;52.468;13.776;2022-12-10T04:39:38;-1.60;99.90
22167;DHT22;11249;52.468;13.776;2022-12-10T04:42:05;-1.60;99.90
22167;DHT22;11249;52.468;13.776;2022-12-10T04:44:32;-1.60;99.90
22167;DHT22;11249;52.468;13.776;2022-12-10T04:46:59;-1.60;99.90
22167;DHT22;11249;52.468;13.776;2022-12-10T04:49:26;-1.60;99.90
22167;DHT22;11249;52.468;13.776;2022-12-10T04:51:53;-1.60;99.90
22167;DHT22;11249;52.468;13.776;2022-12-10T04:54:20;-1.60;99.90
22167;DHT22;11249;52.468;13.776;2022-12-10T04:56:47;-1.50;99.90
22167;DHT22;11249;52.468;13.776;2022-12-10T04:59:14;-1.50;99.90
22167;DHT22;11249;52.468;13.776;2022-12-10T05:01:41;-1.50;99.90
22167;DHT22;11249;52.468;13.776;2022-12-10T05:04:11;-1.50;99.90
22167;DHT22;11249;52.468;13.776;2022-12-10T05:06:38;-1.50;99.90
22167;DHT22;11249;52.468;13.776;2022-12-10T05:09:05;-1.40;99.90
22167;DHT22;11249;52.468;13.776;2022-12-10T05:11:33;-1.40;99.90
22167;DHT22;11249;52.468;13.776;2022-12-10T05:14:00;-1.40;99.90
22167;DHT22;11249;52.468;13.776;2022-12-10T05:16:29;-1.40;99.90
22167;DHT22;11249;52.468;13.776;2022-12-10T05:18:56;-1.40;99.90
22167;DHT22;11249;52.468;13.776;2022-12-10T05:21:25;-1.30;99.90
22167;DHT22;11249;52.468;13.776;2022-12-10T05:24:13;-1.40;99.90
22167;DHT22;11249;52.468;13.776;2022-12-10T05:26:39;-1.30;99.90
22167;DHT22;11249;52.468;13.776;2022-12-10T05:29:06;-1.30;99.90
22167;DHT22;11249;52.468;13.776;2022-12-10T05:31:33;-1.40;99.90
22167;DHT22;11249;52.468;13.776;2022-12-10T05:34:00;-1.30;99.90
22167;DHT22;11249;52.468;13.776;2022-12-10T05:36:29;-1.30;99.90
22167;DHT22;11249;52.468;13.776;2022-12-10T05:38:57;-1.30;99.90
22167;DHT22;11249;52.468;13.776;2022-12-10T05:41:26;-1.30;99.90
22167;DHT22;11249;52.468;13.776;2022-12-10T05:43:54;-1.30;99.90
22167;DHT22;11249;52.468;13.776;2022-12-10T05:46:24;-1.30;99.90
22167;DHT22;11249;52.468;13.776;2022-12-10T05:48:52;-1.20;99.90
22167;DHT22;11249;52.468;13.776;2022-12-10T05:51:23;-1.20;99.90
22167;DHT22;11249;52.468;13.776;2022-12-10T05:53:51;-1.20;99.90
22167;DHT22;11249;52.468;13.776;2022-12-10T05:56:20;-1.20;99.90
22167;DHT22;11249;52.468;13.776;2022-12-10T05:58:50;-1.20;99.90
22167;DHT22;11249;52.468;13.776;2022-12-10T06:01:19;-1.20;99.90
22167;DHT22;11249;52.468;13.776;2022-12-10T06:03:47;-1.10;99.90
22167;DHT22;11249;52.468;13.776;2022-12-10T06:06:14;-1.10;99.90
22167;DHT22;11249;52.468;13.776;2022-12-10T06:08:46;-1.10;99.90
22167;DHT22;11249;52.468;13.776;2022-12-10T06:11:12;-1.10;99.90
22167;DHT22;11249;52.468;13.776;2022-12-10T06:13:39;-1.10;99.90
22167;DHT22;11249;52.468;13.776;2022-12-10T06:16:08;-1.10;99.90
22167;DHT22;11249;52.468;13.776;2022-12-10T06:18:35;-1.10;99.90
22167;DHT22;11249;52.468;13.776;2022-12-10T06:21:06;-1.10;99.90
22167;DHT22;11249;52.468;13.776;2022-12-10T06:23:34;-1.10;99.90
22167;DHT22;11249;52.468;13.776;2022-12-10T06:26:05;-1.10;99.90
22167;DHT22;11249;52.468;13.776;2022-12-10T06:28:32;-1.10;99.90
22167;DHT22;11249;52.468;13.776;2022-12-10T06:30:59;-1.00;99.90
22167;DHT22;11249;52.468;13.776;2022-12-10T06:33:26;-1.00;99.90
22167;DHT22;11249;52.468;13.776;2022-12-10T06:35:53;-1.10;99.90
22167;DHT22;11249;52.468;13.776;2022-12-10T06:38:20;-1.00;99.90
22167;DHT22;11249;52.468;13.776;2022-12-10T06:40:47;-1.00;99.90
22167;DHT22;11249;52.468;13.776;2022-12-10T06:43:14;-1.10;99.90
22167;DHT22;11249;52.468;13.776;2022-12-10T06:45:41;-1.00;99.90
22167;DHT22;11249;52.468;13.776;2022-12-10T06:48:09;-1.00;99.90
22167;DHT22;11249;52.468;13.776;2022-12-10T06:50:36;-1.00;99.90
22167;DHT22;11249;52.468;13.776;2022-12-10T06:53:03;-1.00;99.90
22167;DHT22;11249;52.468;13.776;2022-12-10T06:55:30;-1.00;99.90
22167;DHT22;11249;52.468;13.776;2022-12-10T06:57:57;-1.00;99.90
22167;DHT22;11249;52.468;13.776;2022-12-10T07:00:23;-1.00;99.90
22167;DHT22;11249;52.468;13.776;2022-12-10T07:02:50;-1.00;99.90
22167;DHT22;11249;52.468;13.776;2022-12-10T07:05:17;-1.00;99.90
22167;DHT22;11249;52.468;13.776;2022-12-10T07:07:43;-1.00;99.90
22167;DHT22;11249;52.468;13.776;2022-12-10T07:10:10;-1.00;99.90
22167;DHT22;11249;52.468;13.776;2022-12-10T07:12:37;-0.90;99.90
22167;DHT22;11249;52.468;13.776;2022-12-10T07:15:05;-0.90;99.90
22167;DHT22;11249;52.468;13.776;2022-12-10T07:17:32;-0.90;99.90
22167;DHT22;11249;52.468;13.776;2022-12-10T07:19:58;-0.90;99.90
22167;DHT22;11249;52.468;13.776;2022-12-10T07:22:25;-0.90;99.90
22167;DHT22;11249;52.468;13.776;2022-12-10T07:24:51;-0.90;99.90
22167;DHT22;11249;52.468;13.776;2022-12-10T07:27:18;-0.80;99.90
22167;DHT22;11249;52.468;13.776;2022-12-10T07:29:45;-0.80;99.90
22167;DHT22;11249;52.468;13.776;2022-12-10T07:32:12;-0.80;99.90
22167;DHT22;11249;52.468;13.776;2022-12-10T07:34:39;-0.80;99.90
22167;DHT22;11249;52.468;13.776;2022-12-10T07:37:05;-0.80;99.90
22167;DHT22;11249;52.468;13.776;2022-12-10T07:39:33;-0.80;99.90
22167;DHT22;11249;52.468;13.776;2022-12-10T07:42:00;-0.70;99.90
22167;DHT22;11249;52.468;13.776;2022-12-10T07:44:26;-0.70;99.90
22167;DHT22;11249;52.468;13.776;2022-12-10T07:46:54;-0.70;99.90
22167;DHT22;11249;52.468;13.776;2022-12-10T07:49:21;-0.70;99.90
22167;DHT22;11249;52.468;13.776;2022-12-10T07:51:50;-0.60;99.90
22167;DHT22;11249;52.468;13.776;2022-12-10T07:54:17;-0.60;99.90
22167;DHT22;11249;52.468;13.776;2022-12-10T07:56:44;-0.60;99.90
22167;DHT22;11249;52.468;13.776;2022-12-10T07:59:11;-0.60;99.90
22167;DHT22;11249;52.468;13.776;2022-12-10T08:01:38;-0.60;99.90
22167;DHT22;11249;52.468;13.776;2022-12-10T08:04:05;-0.50;99.90
22167;DHT22;11249;52.468;13.776;2022-12-10T08:06:31;-0.60;99.90
22167;DHT22;11249;52.468;13.776;2022-12-10T08:08:59;-0.60;99.90
22167;DHT22;11249;52.468;13.776;2022-12-10T08:11:26;-0.60;99.90
22167;DHT22;11249;52.468;13.776;2022-12-10T08:13:53;-0.60;99.90
22167;DHT22;11249;52.468;13.776;2022-12-10T08:16:26;-0.60;99.90
22167;DHT22;11249;52.468;13.776;2022-12-10T08:18:55;-0.50;99.90
22167;DHT22;11249;52.468;13.776;2022-12-10T08:21:24;-0.60;99.90
22167;DHT22;11249;52.468;13.776;2022-12-10T08:23:52;-0.60;99.90
22167;DHT22;11249;52.468;13.776;2022-12-10T08:26:24;-0.50;99.90
22167;DHT22;11249;52.468;13.776;2022-12-10T08:28:51;-0.50;99.90
22167;DHT22;11249;52.468;13.776;2022-12-10T08:31:20;-0.50;99.90
22167;DHT22;11249;52.468;13.776;2022-12-10T08:33:47;-0.50;99.90
22167;DHT22;11249;52.468;13.776;2022-12-10T08:36:16;-0.50;99.90
22167;DHT22;11249;52.468;13.776;2022-12-10T08:38:44;-0.40;99.90
22167;DHT22;11249;52.468;13.776;2022-12-10T08:41:20;-0.40;99.90
22167;DHT22;11249;52.468;13.776;2022-12-10T08:43:47;-0.40;99.90
22167;DHT22;11249;52.468;13.776;2022-12-10T08:46:15;-0.40;99.90
22167;DHT22;11249;52.468;13.776;2022-12-10T08:48:42;-0.40;99.90
22167;DHT22;11249;52.468;13.776;2022-12-10T08:51:13;-0.30;99.90
22167;DHT22;11249;52.468;13.776;2022-12-10T08:53:40;-0.30;99.90
22167;DHT22;11249;52.468;13.776;2022-12-10T08:56:07;-0.30;99.90
22167;DHT22;11249;52.468;13.776;2022-12-10T08:58:35;-0.30;99.90
22167;DHT22;11249;52.468;13.776;2022-12-10T09:01:09;-0.30;99.90
22167;DHT22;11249;52.468;13.776;2022-12-10T09:03:37;-0.20;99.90
22167;DHT22;11249;52.468;13.776;2022-12-10T09:06:13;-0.20;99.90
22167;DHT22;11249;52.468;13.776;2022-12-10T09:08:40;-0.20;99.90
22167;DHT22;11249;52.468;13.776;2022-12-10T09:11:16;-0.20;99.90
22167;DHT22;11249;52.468;13.776;2022-12-10T09:13:43;-0.30;99.90
22167;DHT22;11249;52.468;13.776;2022-12-10T09:16:12;-0.30;99.90
22167;DHT22;11249;52.468;13.776;2022-12-10T09:18:39;-0.20;99.90
22167;DHT22;11249;52.468;13.776;2022-12-10T09:21:08;-0.20;99.90
22167;DHT22;11249;52.468;13.776;2022-12-10T09:23:35;-0.20;99.90
22167;DHT22;11249;52.468;13.776;2022-12-10T09:26:07;-0.20;99.90
22167;DHT22;11249;52.468;13.776;2022-12-10T09:28:35;-0.10;99.90
22167;DHT22;11249;52.468;13.776;2022-12-10T09:31:04;-0.10;99.90
22167;DHT22;11249;52.468;13.776;2022-12-10T09:33:40;-0.10;99.90
22167;DHT22;11249;52.468;13.776;2022-12-10T09:36:09;-0.10;99.90
22167;DHT22;11249;52.468;13.776;2022-12-10T09:38:38;-0.10;99.90
22167;DHT22;11249;52.468;13.776;2022-12-10T09:41:30;0.00;99.90
22167;DHT22;11249;52.468;13.776;2022-12-10T09:46:52;0.00;99.90
22167;DHT22;11249;52.468;13.776;2022-12-10T09:49:41;0.00;99.90
22167;DHT22;11249;52.468;13.776;2022-12-10T09:52:15;0.00;99.90
22167;DHT22;11249;52.468;13.776;2022-12-10T09:54:44;0.00;99.90
22167;DHT22;11249;52.468;13.776;2022-12-10T09:57:29;0.00;99.90
22167;DHT22;11249;52.468;13.776;2022-12-10T10:00:05;0.00;99.90
22167;DHT22;11249;52.468;13.776;2022-12-10T10:02:34;0.10;99.90
22167;DHT22;11249;52.468;13.776;2022-12-10T10:05:25;0.10;99.90
22167;DHT22;11249;52.468;13.776;2022-12-10T10:08:01;0.00;99.90
22167;DHT22;11249;52.468;13.776;2022-12-10T10:10:32;0.10;99.90
22167;DHT22;11249;52.468;13.776;2022-12-10T10:15:49;0.10;99.90
22167;DHT22;11249;52.468;13.776;2022-12-10T10:18:33;0.10;99.90
22167;DHT22;11249;52.468;13.776;2022-12-10T10:21:06;0.10;99.90
22167;DHT22;11249;52.468;13.776;2022-12-10T10:23:33;0.10;99.90
22167;DHT22;11249;52.468;13.776;2022-12-10T10:26:01;0.10;99.90
22167;DHT22;11249;52.468;13.776;2022-12-10T10:28:28;0.10;99.90
22167;DHT22;11249;52.468;13.776;2022-12-10T10:30:55;0.20;99.90
22167;DHT22;11249;52.468;13.776;2022-12-10T10:33:22;0.20;99.90
22167;DHT22;11249;52.468;13.776;2022-12-10T10:35:56;0.20;99.90
22167;DHT22;11249;52.468;13.776;2022-12-10T10:38:28;0.20;99.90
22167;DHT22;11249;52.468;13.776;2022-12-10T10:40:58;0.30;99.90
22167;DHT22;11249;52.468;13.776;2022-12-10T10:43:34;0.30;99.90
22167;DHT22;11249;52.468;13.776;2022-12-10T10:46:23;0.30;99.90
22167;DHT22;11249;52.468;13.776;2022-12-10T10:48:50;0.30;99.90
22167;DHT22;11249;52.468;13.776;2022-12-10T10:51:22;0.40;99.90
22167;DHT22;11249;52.468;13.776;2022-12-10T10:53:55;0.50;99.90
22167;DHT22;11249;52.468;13.776;2022-12-10T10:56:40;0.50;99.90
22167;DHT22;11249;52.468;13.776;2022-12-10T11:01:49;0.50;99.90
22167;DHT22;11249;52.468;13.776;2022-12-10T11:04:21;0.50;99.90
22167;DHT22;11249;52.468;13.776;2022-12-10T11:06:50;0.50;99.90
22167;DHT22;11249;52.468;13.776;2022-12-10T11:09:26;0.50;99.90
22167;DHT22;11249;52.468;13.776;2022-12-10T11:12:06;0.50;99.90
22167;DHT22;11249;52.468;13.776;2022-12-10T11:14:40;0.50;99.90
22167;DHT22;11249;52.468;13.776;2022-12-10T11:19:52;0.40;99.90
22167;DHT22;11249;52.468;13.776;2022-12-10T11:22:22;0.50;99.90
22167;DHT22;11249;52.468;13.776;2022-12-10T11:24:50;0.50;99.90
22167;DHT22;11249;52.468;13.776;2022-12-10T11:27:33;0.40;99.90
22167;DHT22;11249;52.468;13.776;2022-12-10T11:30:08;0.50;99.90
22167;DHT22;11249;52.468;13.776;2022-12-10T11:33:00;0.40;99.90
22167;DHT22;11249;52.468;13.776;2022-12-10T11:38:46;0.40;99.90
22167;DHT22;11249;52.468;13.776;2022-12-10T11:44:16;0.40;99.90
22167;DHT22;11249;52.468;13.776;2022-12-10T11:49:40;0.50;99.90
22167;DHT22;11249;52.468;13.776;2022-12-10T11:58:35;0.70;99.90
22167;DHT22;11249;52.468;13.776;2022-12-10T12:01:16;0.60;99.90
22167;DHT22;11249;52.468;13.776;2022-12-10T12:04:30;0.50;99.90
22167;DHT22;11249;52.468;13.776;2022-12-10T12:15:42;0.30;99.90
22167;DHT22;11249;52.468;13.776;2022-12-10T12:18:26;0.30;99.90
22167;DHT22;11249;52.468;13.776;2022-12-10T12:20:58;0.30;99.90
22167;DHT22;11249;52.468;13.776;2022-12-10T12:23:44;0.30;99.90
22167;DHT22;11249;52.468;13.776;2022-12-10T12:26:26;0.40;99.90
22167;DHT22;11249;52.468;13.776;2022-12-10T12:31:41;0.40;99.90
22167;DHT22;11249;52.468;13.776;2022-12-10T12:34:29;0.40;99.90
22167;DHT22;11249;52.468;13.776;2022-12-10T12:37:01;0.30;99.90
22167;DHT22;11249;52.468;13.776;2022-12-10T12:42:28;0.40;99.90
22167;DHT22;11249;52.468;13.776;2022-12-10T12:45:10;0.30;99.90
22167;DHT22;11249;52.468;13.776;2022-12-10T12:50:40;0.30;99.90
22167;DHT22;11249;52.468;13.776;2022-12-10T12:53:13;0.30;99.90
22167;DHT22;11249;52.468;13.776;2022-12-10T12:58:54;0.30;99.90
22167;DHT22;11249;52.468;13.776;2022-12-10T13:04:14;0.30;99.90
22167;DHT22;11249;52.468;13.776;2022-12-10T13:06:41;0.30;99.90
22167;DHT22;11249;52.468;13.776;2022-12-10T13:25:54;0.30;99.90
22167;DHT22;11249;52.468;13.776;2022-12-10T13:36:37;0.30;99.90
22167;DHT22;11249;52.468;13.776;2022-12-10T13:39:33;0.20;99.90
22167;DHT22;11249;52.468;13.776;2022-12-10T13:47:48;0.10;99.90
22167;DHT22;11249;52.468;13.776;2022-12-10T13:50:19;0.20;99.90
22167;DHT22;11249;52.468;13.776;2022-12-10T13:53:13;0.10;99.90
22167;DHT22;11249;52.468;13.776;2022-12-10T13:56:16;0.10;99.90
22167;DHT22;11249;52.468;13.776;2022-12-10T14:05:00;0.00;99.90
22167;DHT22;11249;52.468;13.776;2022-12-10T14:07:30;0.00;99.90
22167;DHT22;11249;52.468;13.776;2022-12-10T14:09:58;0.00;99.90
22167;DHT22;11249;52.468;13.776;2022-12-10T14:12:31;0.00;99.90
22167;DHT22;11249;52.468;13.776;2022-12-10T14:15:03;0.00;99.90
22167;DHT22;11249;52.468;13.776;2022-12-10T14:17:38;0.00;99.90
22167;DHT22;11249;52.468;13.776;2022-12-10T14:20:11;-0.10;99.90
22167;DHT22;11249;52.468;13.776;2022-12-10T14:22:50;-0.10;99.90
22167;DHT22;11249;52.468;13.776;2022-12-10T14:25:20;-0.10;99.90
22167;DHT22;11249;52.468;13.776;2022-12-10T14:27:52;-0.10;99.90
22167;DHT22;11249;52.468;13.776;2022-12-10T14:30:24;-0.10;99.90
22167;DHT22;11249;52.468;13.776;2022-12-10T14:32:58;-0.10;99.90
22167;DHT22;11249;52.468;13.776;2022-12-10T14:35:27;-0.10;99.90
22167;DHT22;11249;52.468;13.776;2022-12-10T14:37:57;-0.10;99.90
22167;DHT22;11249;52.468;13.776;2022-12-10T14:40:30;-0.10;99.90
22167;DHT22;11249;52.468;13.776;2022-12-10T14:43:06;-0.10;99.90
22167;DHT22;11249;52.468;13.776;2022-12-10T14:45:46;-0.10;99.90
22167;DHT22;11249;52.468;13.776;2022-12-10T14:48:14;-0.10;99.90
22167;DHT22;11249;52.468;13.776;2022-12-10T14:50:44;-0.10;99.90
22167;DHT22;11249;52.468;13.776;2022-12-10T14:53:17;-0.10;99.90
22167;DHT22;11249;52.468;13.776;2022-12-10T14:55:57;-0.10;99.90
22167;DHT22;11249;52.468;13.776;2022-12-10T15:03:53;-0.20;99.90
22167;DHT22;11249;52.468;13.776;2022-12-10T15:06:21;-0.20;99.90
22167;DHT22;11249;52.468;13.776;2022-12-10T15:08:49;-0.20;99.90
22167;DHT22;11249;52.468;13.776;2022-12-10T15:11:19;-0.30;99.90
22167;DHT22;11249;52.468;13.776;2022-12-10T15:13:53;-0.30;99.90
22167;DHT22;11249;52.468;13.776;2022-12-10T15:16:30;-0.30;99.90
22167;DHT22;11249;52.468;13.776;2022-12-10T15:21:45;-0.30;99.90
22167;DHT22;11249;52.468;13.776;2022-12-10T15:24:36;-0.30;99.90
22167;DHT22;11249;52.468;13.776;2022-12-10T15:27:13;-0.30;99.90
22167;DHT22;11249;52.468;13.776;2022-12-10T15:29:41;-0.30;99.90
22167;DHT22;11249;52.468;13.776;2022-12-10T15:32:18;-0.40;99.90
22167;DHT22;11249;52.468;13.776;2022-12-10T15:34:53;-0.30;99.90
22167;DHT22;11249;52.468;13.776;2022-12-10T15:37:24;-0.30;99.90
22167;DHT22;11249;52.468;13.776;2022-12-10T15:39:54;-0.30;99.90
22167;DHT22;11249;52.468;13.776;2022-12-10T15:42:43;-0.30;99.90
22167;DHT22;11249;52.468;13.776;2022-12-10T15:45:37;-0.30;99.90
22167;DHT22;11249;52.468;13.776;2022-12-10T15:48:08;-0.30;99.90
22167;DHT22;11249;52.468;13.776;2022-12-10T15:50:40;-0.30;99.90
22167;DHT22;11249;52.468;13.776;2022-12-10T15:53:12;-0.10;99.90
22167;DHT22;11249;52.468;13.776;2022-12-10T15:55:39;-0.10;99.90
22167;DHT22;11249;52.468;13.776;2022-12-10T15:58:13;-0.20;99.90
22167;DHT22;11249;52.468;13.776;2022-12-10T16:00:40;-0.20;99.90
22167;DHT22;11249;52.468;13.776;2022-12-10T16:03:12;-0.20;99.90
22167;DHT22;11249;52.468;13.776;2022-12-10T16:05:39;-0.30;99.90
22167;DHT22;11249;52.468;13.776;2022-12-10T16:08:11;-0.30;99.90
22167;DHT22;11249;52.468;13.776;2022-12-10T16:10:39;-0.30;99.90
22167;DHT22;11249;52.468;13.776;2022-12-10T16:13:11;-0.30;99.90
22167;DHT22;11249;52.468;13.776;2022-12-10T16:16:04;-0.30;99.90
22167;DHT22;11249;52.468;13.776;2022-12-10T16:18:32;-0.30;99.90
22167;DHT22;11249;52.468;13.776;2022-12-10T16:21:00;-0.30;99.90
22167;DHT22;11249;52.468;13.776;2022-12-10T16:23:26;-0.30;99.90
22167;DHT22;11249;52.468;13.776;2022-12-10T16:25:53;-0.30;99.90
22167;DHT22;11249;52.468;13.776;2022-12-10T16:28:21;-0.30;99.90
22167;DHT22;11249;52.468;13.776;2022-12-10T16:30:51;-0.40;99.90
22167;DHT22;11249;52.468;13.776;2022-12-10T16:33:20;-0.40;99.90
22167;DHT22;11249;52.468;13.776;2022-12-10T16:35:47;-0.30;99.90
22167;DHT22;11249;52.468;13.776;2022-12-10T16:38:14;-0.30;99.90
22167;DHT22;11249;52.468;13.776;2022-12-10T16:40:43;-0.40;99.90
22167;DHT22;11249;52.468;13.776;2022-12-10T16:43:22;-0.40;99.90
22167;DHT22;11249;52.468;13.776;2022-12-10T16:45:49;-0.40;99.90
22167;DHT22;11249;52.468;13.776;2022-12-10T16:48:17;-0.40;99.90
22167;DHT22;11249;52.468;13.776;2022-12-10T16:50:45;-0.40;99.90
22167;DHT22;11249;52.468;13.776;2022-12-10T16:53:27;-0.40;99.90
22167;DHT22;11249;52.468;13.776;2022-12-10T16:55:55;-0.40;99.90
22167;DHT22;11249;52.468;13.776;2022-12-10T16:58:24;-0.40;99.90
22167;DHT22;11249;52.468;13.776;2022-12-10T17:00:52;-0.40;99.90
22167;DHT22;11249;52.468;13.776;2022-12-10T17:03:25;-0.40;99.90
22167;DHT22;11249;52.468;13.776;2022-12-10T17:05:57;-0.40;99.90
22167;DHT22;11249;52.468;13.776;2022-12-10T17:08:25;-0.40;99.90
22167;DHT22;11249;52.468;13.776;2022-12-10T17:10:53;-0.40;99.90
22167;DHT22;11249;52.468;13.776;2022-12-10T17:13:39;-0.40;99.90
22167;DHT22;11249;52.468;13.776;2022-12-10T17:16:12;-0.40;99.90
22167;DHT22;11249;52.468;13.776;2022-12-10T17:18:39;-0.40;99.90
22167;DHT22;11249;52.468;13.776;2022-12-10T17:21:06;-0.40;99.90
22167;DHT22;11249;52.468;13.776;2022-12-10T17:23:32;-0.50;99.90
22167;DHT22;11249;52.468;13.776;2022-12-10T17:25:59;-0.40;99.90
22167;DHT22;11249;52.468;13.776;2022-12-10T17:28:27;-0.40;99.90
22167;DHT22;11249;52.468;13.776;2022-12-10T17:30:54;-0.40;99.90